Time;durP1;ratioP1;P1;durP2;ratioP2;P2;SDS_P1;SDS_P2;PMS_P1;PMS_P2;Temp;Humidity;BMP_temperature;BMP_pressure;BME280_temperature;BME280_humidity;BME280_pressure;Samples;Min_cycle;Max_cycle;Signal;HPM_P1;HPM_P2
2021/01/04 00:00:42;;;;;;;31.98;13.35;;;4.60;99.90;;;;;;5032783;28;20116;-65
2021/01/04 00:03:34;;;;;;;34.92;11.80;;;4.50;99.90;;;;;;5032053;28;20056;-64
2021/01/04 00:06:33;;;;;;;33.17;13.25;;;4.50;99.90;;;;;;5030731;28;20065;-64
2021/01/04 00:09:27;;;;;;;37.88;13.50;;;4.50;99.90;;;;;;4997905;28;20079;-64
2021/01/04 00:12:17;;;;;;;41.35;15.07;;;4.50;99.90;;;;;;4972009;28;20060;-64
2021/01/04 00:15:00;;;;;;;34.55;12.43;;;4.50;99.90;;;;;;5003487;28;20405;-64
2021/01/04 00:17:53;;;;;;;39.53;13.73;;;4.40;99.90;;;;;;5005328;28;20054;-64
2021/01/04 00:20:42;;;;;;;37.20;13.25;;;4.40;99.90;;;;;;5005974;28;20057;-64
2021/01/04 00:23:18;;;;;;;40.97;14.38;;;4.40;99.90;;;;;;5004547;28;20115;-64
2021/01/04 00:25:54;;;;;;;40.10;13.55;;;4.50;99.90;;;;;;4979926;28;20430;-64
2021/01/04 00:28:25;;;;;;;38.85;14.07;;;4.50;99.90;;;;;;5009981;28;20188;-64
2021/01/04 00:31:03;;;;;;;36.20;13.40;;;4.40;99.90;;;;;;5006739;28;20108;-64
2021/01/04 00:33:32;;;;;;;32.55;13.60;;;4.40;99.90;;;;;;5009730;28;20848;-64
2021/01/04 00:36:03;;;;;;;38.65;12.73;;;4.40;99.90;;;;;;4980927;28;20212;-64
2021/01/04 00:38:44;;;;;;;29.90;11.25;;;4.40;99.90;;;;;;4990661;28;20489;-64
2021/01/04 00:41:14;;;;;;;33.63;12.25;;;4.40;99.90;;;;;;5004177;28;20045;-64
2021/01/04 00:43:54;;;;;;;40.22;13.65;;;4.40;99.90;;;;;;5005373;28;20101;-64
2021/01/04 00:46:29;;;;;;;39.83;14.02;;;4.40;99.90;;;;;;5030324;28;20871;-64
2021/01/04 00:49:29;;;;;;;41.75;14.35;;;4.40;99.90;;;;;;5024949;28;20583;-64
2021/01/04 00:52:46;;;;;;;41.47;13.98;;;4.30;99.90;;;;;;5028609;28;20061;-64
2021/01/04 00:55:32;;;;;;;38.40;12.93;;;4.30;99.90;;;;;;5006430;28;20061;-64
2021/01/04 00:58:14;;;;;;;36.80;13.60;;;4.20;99.90;;;;;;5008885;28;20054;-64
2021/01/04 01:00:51;;;;;;;32.15;11.70;;;4.30;99.90;;;;;;4997045;28;20058;-64
2021/01/04 01:03:54;;;;;;;32.22;12.80;;;4.20;99.90;;;;;;4990224;28;20501;-64
2021/01/04 01:06:26;;;;;;;35.67;13.15;;;4.10;99.90;;;;;;5008177;28;20393;-64
2021/01/04 01:08:55;;;;;;;37.43;11.90;;;4.10;99.90;;;;;;5005776;28;20053;-64
2021/01/04 01:11:50;;;;;;;32.13;11.90;;;4.10;99.90;;;;;;4981949;28;20057;-64
2021/01/04 01:14:28;;;;;;;38.38;11.75;;;4.10;99.90;;;;;;5000518;28;20057;-64
2021/01/04 01:17:45;;;;;;;32.13;12.73;;;4.10;99.90;;;;;;4989519;28;20049;-64
2021/01/04 01:20:16;;;;;;;31.15;10.77;;;4.00;99.90;;;;;;4986829;28;20572;-64
2021/01/04 01:22:43;;;;;;;31.67;11.07;;;4.00;99.90;;;;;;5008417;28;20050;-64
2021/01/04 01:25:16;;;;;;;32.03;12.13;;;4.00;99.90;;;;;;4972248;28;20124;-64
2021/01/04 01:28:20;;;;;;;36.40;12.20;;;4.00;99.90;;;;;;5009155;28;20054;-64
2021/01/04 01:31:11;;;;;;;27.67;10.00;;;4.00;99.90;;;;;;5020829;28;20052;-64
2021/01/04 01:34:15;;;;;;;32.88;11.25;;;4.10;99.90;;;;;;5031666;28;20041;-64
2021/01/04 01:37:14;;;;;;;36.60;12.55;;;4.20;99.90;;;;;;5031305;28;20049;-64
2021/01/04 01:40:33;;;;;;;39.47;11.30;;;4.20;99.90;;;;;;5029088;28;20099;-64
2021/01/04 01:43:05;;;;;;;31.63;11.13;;;4.20;99.90;;;;;;5020033;28;20056;-64
2021/01/04 01:46:01;;;;;;;31.38;11.23;;;4.30;99.90;;;;;;5029419;28;20059;-64
2021/01/04 01:48:45;;;;;;;33.95;11.55;;;4.30;99.90;;;;;;5018070;28;20046;-64
2021/01/04 01:51:37;;;;;;;32.90;10.57;;;4.30;99.90;;;;;;5029273;28;20041;-64
2021/01/04 01:54:35;;;;;;;34.65;11.48;;;4.40;99.90;;;;;;5024067;28;20820;-64
2021/01/04 01:57:25;;;;;;;30.73;10.77;;;4.40;99.90;;;;;;5021861;28;20497;-64
2021/01/04 01:59:58;;;;;;;32.33;11.30;;;4.40;99.90;;;;;;5023580;28;20037;-64
2021/01/04 02:03:02;;;;;;;30.08;11.27;;;4.50;99.90;;;;;;5028579;28;20041;-64
2021/01/04 02:05:43;;;;;;;28.45;11.00;;;4.50;99.90;;;;;;5027332;28;20161;-64
2021/01/04 02:08:16;;;;;;;31.63;9.77;;;4.50;99.90;;;;;;5029103;28;20794;-64
2021/01/04 02:10:49;;;;;;;34.13;11.43;;;4.50;99.90;;;;;;5025869;28;20044;-64
2021/01/04 02:13:38;;;;;;;27.88;9.65;;;4.50;99.90;;;;;;5025438;28;20053;-64
2021/01/04 02:16:18;;;;;;;27.85;10.13;;;4.50;99.90;;;;;;5028477;28;20053;-64
2021/01/04 02:18:50;;;;;;;27.13;9.68;;;4.50;99.90;;;;;;5030048;28;20061;-64
2021/01/04 02:21:38;;;;;;;30.00;9.45;;;4.50;99.90;;;;;;5031061;28;20041;-64
2021/01/04 02:24:09;;;;;;;25.52;10.52;;;4.50;99.90;;;;;;5011826;28;20037;-64
2021/01/04 02:26:40;;;;;;;34.60;10.95;;;4.50;99.90;;;;;;5027174;28;20049;-64
2021/01/04 02:29:12;;;;;;;29.52;10.85;;;4.60;99.90;;;;;;5030918;28;20045;-64
2021/01/04 02:31:42;;;;;;;29.05;10.98;;;4.60;99.90;;;;;;5030299;28;20484;-64
2021/01/04 02:34:12;;;;;;;26.48;10.68;;;4.60;99.90;;;;;;5021628;28;20049;-64
2021/01/04 02:36:44;;;;;;;27.25;9.88;;;4.60;99.90;;;;;;5029614;28;20045;-64
2021/01/04 02:39:22;;;;;;;27.92;9.48;;;4.50;99.90;;;;;;5022079;28;20056;-64
2021/01/04 02:41:52;;;;;;;29.98;10.63;;;4.50;99.90;;;;;;5021558;28;20415;-64
2021/01/04 02:44:26;;;;;;;27.70;9.25;;;4.50;99.90;;;;;;5030141;28;20048;-64
2021/01/04 02:47:08;;;;;;;31.98;10.50;;;4.40;99.90;;;;;;5030902;28;20427;-64
2021/01/04 02:50:10;;;;;;;24.20;9.63;;;4.40;99.90;;;;;;5030524;28;20048;-64
2021/01/04 02:52:59;;;;;;;29.88;9.95;;;4.40;99.90;;;;;;5027343;28;20050;-64
2021/01/04 02:55:50;;;;;;;27.63;9.88;;;4.50;99.90;;;;;;5019510;28;20051;-64
2021/01/04 02:58:40;;;;;;;34.30;10.93;;;4.60;99.90;;;;;;5032218;28;20492;-64
2021/01/04 03:01:19;;;;;;;32.45;11.35;;;4.70;99.90;;;;;;5024593;28;20116;-64
2021/01/04 03:03:47;;;;;;;33.00;10.93;;;4.70;99.90;;;;;;5032934;28;20052;-64
2021/01/04 03:06:19;;;;;;;36.10;12.05;;;4.70;99.90;;;;;;5030842;28;20056;-64
2021/01/04 03:08:45;;;;;;;34.75;12.73;;;4.70;99.90;;;;;;5023035;28;20052;-64
2021/01/04 03:11:15;;;;;;;34.22;10.15;;;4.70;99.90;;;;;;5020545;28;20041;-64
2021/01/04 03:14:01;;;;;;;29.60;11.55;;;4.80;99.90;;;;;;5028271;28;20543;-64
2021/01/04 03:16:50;;;;;;;31.30;10.88;;;4.80;99.90;;;;;;5028885;28;20049;-64
2021/01/04 03:19:21;;;;;;;31.27;11.60;;;4.80;99.90;;;;;;5019364;28;20046;-64
2021/01/04 03:22:00;;;;;;;26.00;9.45;;;4.80;99.90;;;;;;5023048;28;20085;-64
2021/01/04 03:24:27;;;;;;;31.60;11.18;;;4.80;99.90;;;;;;5021244;28;20072;-64
2021/01/04 03:27:26;;;;;;;29.48;11.88;;;4.80;99.90;;;;;;5027554;28;20045;-64
2021/01/04 03:29:52;;;;;;;29.95;10.63;;;4.90;99.90;;;;;;5028801;28;20064;-64
2021/01/04 03:32:19;;;;;;;29.65;10.93;;;4.90;99.90;;;;;;5029380;28;20060;-64
2021/01/04 03:34:46;;;;;;;32.60;10.75;;;4.90;99.90;;;;;;5029106;28;20045;-64
2021/01/04 03:37:13;;;;;;;31.73;12.40;;;5.00;99.90;;;;;;5024984;28;20046;-64
2021/01/04 03:39:41;;;;;;;32.13;12.00;;;5.00;99.90;;;;;;5029438;28;20056;-64
2021/01/04 03:42:08;;;;;;;35.47;12.57;;;5.00;99.90;;;;;;5028147;28;20069;-64
2021/01/04 03:44:34;;;;;;;33.22;10.68;;;5.00;99.90;;;;;;5006009;28;20938;-64
2021/01/04 03:47:01;;;;;;;31.42;12.18;;;5.00;99.90;;;;;;5026834;28;20431;-64
2021/01/04 03:49:27;;;;;;;33.70;11.48;;;5.00;99.90;;;;;;5012179;28;20061;-64
2021/01/04 03:51:56;;;;;;;27.95;10.90;;;5.00;99.90;;;;;;5028556;28;20041;-64
2021/01/04 03:54:24;;;;;;;29.73;10.82;;;5.00;99.90;;;;;;5020590;28;20362;-64
2021/01/04 03:56:53;;;;;;;31.63;11.20;;;5.10;99.90;;;;;;5021531;28;20041;-64
2021/01/04 03:59:20;;;;;;;29.42;9.93;;;5.10;99.90;;;;;;5031189;28;20041;-64
2021/01/04 04:01:52;;;;;;;31.52;11.80;;;5.10;99.90;;;;;;5028492;28;20045;-64
2021/01/04 04:04:20;;;;;;;37.63;11.45;;;5.10;99.90;;;;;;5027050;28;20049;-64
2021/01/04 04:06:47;;;;;;;28.20;10.20;;;5.10;99.90;;;;;;5022660;28;20096;-64
2021/01/04 04:09:16;;;;;;;29.30;10.93;;;5.10;99.90;;;;;;5024729;28;20037;-65
2021/01/04 04:11:43;;;;;;;30.52;10.38;;;5.10;99.90;;;;;;5029030;28;20049;-64
2021/01/04 04:14:10;;;;;;;24.45;10.25;;;5.10;99.90;;;;;;5024255;28;20047;-64
2021/01/04 04:16:37;;;;;;;31.60;10.60;;;5.10;99.90;;;;;;5020490;28;20053;-64
2021/01/04 04:19:05;;;;;;;28.92;10.20;;;5.10;99.90;;;;;;5029457;28;20053;-64
2021/01/04 04:21:32;;;;;;;29.50;11.38;;;5.10;99.90;;;;;;5029160;28;20496;-64
2021/01/04 04:23:59;;;;;;;27.25;9.98;;;5.20;99.90;;;;;;5029221;28;20037;-64
2021/01/04 04:26:28;;;;;;;29.25;10.98;;;5.20;99.90;;;;;;5031495;28;20108;-64
2021/01/04 04:28:54;;;;;;;30.50;11.07;;;5.20;99.90;;;;;;5033136;28;20037;-64
2021/01/04 04:31:22;;;;;;;34.08;12.43;;;5.20;99.90;;;;;;5032168;28;20064;-64
2021/01/04 04:33:49;;;;;;;25.35;9.88;;;5.30;99.90;;;;;;5027274;28;20400;-64
2021/01/04 04:36:22;;;;;;;30.10;10.57;;;5.30;99.90;;;;;;5030669;28;20068;-64
2021/01/04 04:38:49;;;;;;;;;;;5.30;99.90;;;;;;5031477;28;20083;-64
2021/01/04 04:41:27;;;;;;;22.83;8.57;;;5.30;99.90;;;;;;5031423;28;20403;-64
2021/01/04 04:44:01;;;;;;;29.52;9.55;;;5.30;99.90;;;;;;5011074;28;20057;-64
2021/01/04 04:46:50;;;;;;;26.48;9.60;;;5.30;99.90;;;;;;5027026;28;20075;-64
2021/01/04 04:49:52;;;;;;;26.02;9.70;;;5.30;99.90;;;;;;5029234;28;20049;-64
2021/01/04 04:52:46;;;;;;;27.65;10.25;;;5.40;99.90;;;;;;5029200;28;20087;-64
2021/01/04 04:55:18;;;;;;;34.17;10.55;;;5.40;99.90;;;;;;5014232;28;20033;-64
2021/01/04 04:58:07;;;;;;;25.08;9.30;;;5.50;99.90;;;;;;5018510;28;20058;-64
2021/01/04 05:01:18;;;;;;;26.23;9.57;;;5.50;99.90;;;;;;5011626;28;20112;-64
2021/01/04 05:03:56;;;;;;;22.63;9.15;;;5.50;99.90;;;;;;4970496;28;20432;-64
2021/01/04 05:06:40;;;;;;;25.55;9.02;;;5.50;99.90;;;;;;5028178;28;20050;-64
2021/01/04 05:09:25;;;;;;;28.33;10.15;;;5.50;99.90;;;;;;5014841;28;20048;-64
2021/01/04 05:12:16;;;;;;;25.88;10.25;;;5.50;99.90;;;;;;4998810;28;20049;-64
2021/01/04 05:15:05;;;;;;;26.00;8.90;;;5.50;99.90;;;;;;5004343;28;20071;-64
2021/01/04 05:17:49;;;;;;;25.60;9.63;;;5.50;99.90;;;;;;5028240;28;20569;-64
2021/01/04 05:20:46;;;;;;;25.48;9.68;;;5.60;99.90;;;;;;5011919;28;20839;-64
2021/01/04 05:23:27;;;;;;;29.27;11.18;;;5.60;99.90;;;;;;5009074;28;20050;-64
2021/01/04 05:26:29;;;;;;;28.90;9.82;;;5.60;99.90;;;;;;5010713;28;20041;-64
2021/01/04 05:29:23;;;;;;;26.20;9.50;;;5.60;99.90;;;;;;5019783;28;20060;-64
2021/01/04 05:32:08;;;;;;;21.10;9.32;;;5.60;99.90;;;;;;5021818;28;20045;-64
2021/01/04 05:34:39;;;;;;;26.58;9.32;;;5.60;99.90;;;;;;5029117;28;20045;-64
2021/01/04 05:37:37;;;;;;;28.88;10.55;;;5.60;99.90;;;;;;5020120;28;20057;-64
2021/01/04 05:40:24;;;;;;;28.60;11.45;;;5.70;99.90;;;;;;5032635;28;20388;-64
2021/01/04 05:43:10;;;;;;;27.15;10.43;;;5.60;99.90;;;;;;5030935;28;20037;-64
2021/01/04 05:46:20;;;;;;;27.23;11.43;;;5.70;99.90;;;;;;5025272;28;20500;-64
2021/01/04 05:49:06;;;;;;;27.80;10.85;;;5.70;99.90;;;;;;5017021;28;20728;-64
2021/01/04 05:51:46;;;;;;;32.28;10.32;;;5.70;99.90;;;;;;5027478;28;20048;-64
2021/01/04 05:54:27;;;;;;;28.30;11.85;;;5.70;99.90;;;;;;5012208;28;20391;-64
2021/01/04 05:57:10;;;;;;;30.45;11.50;;;5.70;99.90;;;;;;5028103;28;20037;-64
2021/01/04 05:59:51;;;;;;;;;;;5.70;99.90;;;;;;5029108;28;23761;-64
2021/01/04 06:02:34;;;;;;;23.50;10.02;;;5.70;99.90;;;;;;5012050;28;19944;-64
2021/01/04 06:05:15;;;;;;;26.08;10.18;;;5.70;99.90;;;;;;5028870;28;20041;-64
2021/01/04 06:07:44;;;;;;;33.45;12.00;;;5.70;99.90;;;;;;5030684;28;20038;-64
2021/01/04 06:10:22;;;;;;;29.65;11.77;;;5.70;99.90;;;;;;5026335;28;20049;-64
2021/01/04 06:13:05;;;;;;;27.80;11.32;;;5.70;99.90;;;;;;5023709;28;20056;-64
2021/01/04 06:15:33;;;;;;;25.92;9.68;;;5.70;99.90;;;;;;5018315;28;20103;-64
2021/01/04 06:18:13;;;;;;;30.85;10.30;;;5.70;99.90;;;;;;5029497;28;20059;-64
2021/01/04 06:21:18;;;;;;;28.58;10.82;;;5.70;99.90;;;;;;5027372;28;20043;-64
2021/01/04 06:23:44;;;;;;;25.48;9.85;;;5.70;99.90;;;;;;5028174;28;20412;-64
2021/01/04 06:26:22;;;;;;;28.33;10.15;;;5.70;99.90;;;;;;5026093;28;20046;-64
2021/01/04 06:28:49;;;;;;;23.23;9.02;;;5.70;99.90;;;;;;5024472;28;20045;-64
2021/01/04 06:31:29;;;;;;;32.92;11.23;;;5.80;99.90;;;;;;5022936;28;20527;-64
2021/01/04 06:33:59;;;;;;;32.35;12.68;;;5.70;99.90;;;;;;5030855;28;20050;-64
2021/01/04 06:36:26;;;;;;;39.47;14.57;;;5.80;99.90;;;;;;5023200;28;20050;-64
2021/01/04 06:38:53;;;;;;;42.15;15.93;;;5.80;99.90;;;;;;5025364;28;20042;-64
2021/01/04 06:41:30;;;;;;;38.15;15.00;;;5.80;99.90;;;;;;5011341;28;20037;-64
2021/01/04 06:44:07;;;;;;;37.00;12.90;;;5.80;99.90;;;;;;5023847;28;20060;-64
2021/01/04 06:47:11;;;;;;;35.88;11.90;;;5.80;99.90;;;;;;5028440;28;20033;-64
2021/01/04 06:50:12;;;;;;;39.65;12.73;;;5.80;99.90;;;;;;5031572;28;20046;-64
2021/01/04 06:52:38;;;;;;;32.83;14.25;;;5.90;99.90;;;;;;5007380;28;20065;-64
2021/01/04 06:55:41;;;;;;;34.33;13.02;;;5.90;99.90;;;;;;5006619;28;20066;-64
2021/01/04 06:58:58;;;;;;;25.52;9.60;;;5.90;99.90;;;;;;4968758;28;20045;-64
2021/01/04 07:01:55;;;;;;;28.35;9.65;;;5.90;99.90;;;;;;4924095;29;20055;-64
2021/01/04 07:04:45;;;;;;;27.80;8.93;;;6.00;99.90;;;;;;4928644;29;20059;-64
2021/01/04 07:07:24;;;;;;;27.67;9.98;;;6.00;99.90;;;;;;4913043;29;20055;-64
2021/01/04 07:10:14;;;;;;;27.15;9.00;;;6.00;99.90;;;;;;4930416;29;20096;-64
2021/01/04 07:13:08;;;;;;;27.83;9.40;;;6.00;99.90;;;;;;4929733;29;20043;-64
2021/01/04 07:15:46;;;;;;;27.83;8.82;;;6.10;99.90;;;;;;4931265;29;20047;-64
2021/01/04 07:18:35;;;;;;;24.15;8.93;;;6.10;99.90;;;;;;4925139;29;20196;-64
2021/01/04 07:21:34;;;;;;;25.38;8.15;;;6.10;99.90;;;;;;4929964;29;20040;-64
2021/01/04 07:24:42;;;;;;;22.88;7.88;;;6.20;99.90;;;;;;4930739;29;20052;-64
2021/01/04 07:27:30;;;;;;;24.15;9.20;;;6.20;99.90;;;;;;4921960;29;20040;-64
2021/01/04 07:30:20;;;;;;;27.00;9.82;;;6.30;99.90;;;;;;4938526;28;20158;-64
2021/01/04 07:33:17;;;;;;;31.13;10.20;;;6.30;99.90;;;;;;4952915;28;20058;-64
2021/01/04 07:36:12;;;;;;;32.53;11.20;;;6.30;99.90;;;;;;4964597;28;20049;-64
2021/01/04 07:39:03;;;;;;;30.73;10.85;;;6.40;99.90;;;;;;5012721;28;20057;-64
2021/01/04 07:42:06;;;;;;;29.80;10.23;;;6.40;99.90;;;;;;5029055;28;20045;-64
2021/01/04 07:44:32;;;;;;;26.40;9.88;;;6.50;99.90;;;;;;5025689;28;20049;-64
2021/01/04 07:47:29;;;;;;;31.88;9.68;;;6.60;99.90;;;;;;5029019;28;20041;-64
2021/01/04 07:50:13;;;;;;;32.00;10.70;;;6.60;99.90;;;;;;5032328;28;20623;-64
2021/01/04 07:53:02;;;;;;;30.00;9.63;;;6.70;99.90;;;;;;5037075;28;20060;-64
2021/01/04 07:56:06;;;;;;;29.30;9.80;;;6.70;99.90;;;;;;5005693;28;20054;-64
2021/01/04 07:59:10;;;;;;;28.70;9.88;;;6.70;99.90;;;;;;5012445;28;20045;-64
2021/01/04 08:02:15;;;;;;;32.53;10.13;;;6.70;99.90;;;;;;5045707;28;20049;-64
2021/01/04 08:04:46;;;;;;;28.77;10.77;;;6.70;99.90;;;;;;5028614;28;20049;-64
2021/01/04 08:07:36;;;;;;;30.42;11.32;;;6.70;99.90;;;;;;5029633;28;20052;-64
2021/01/04 08:10:40;;;;;;;31.30;10.80;;;6.70;99.90;;;;;;5027413;28;20034;-64
2021/01/04 08:13:55;;;;;;;24.67;8.95;;;6.70;99.90;;;;;;5036245;28;20037;-66
2021/01/04 08:16:34;;;;;;;24.00;8.45;;;6.70;99.90;;;;;;5033290;28;20050;-64
2021/01/04 08:19:05;;;;;;;26.90;9.73;;;6.70;99.90;;;;;;5038236;28;20443;-64
2021/01/04 08:22:05;;;;;;;28.27;10.48;;;6.80;99.90;;;;;;5030629;28;20065;-64
2021/01/04 08:24:37;;;;;;;26.92;8.65;;;6.80;99.90;;;;;;5032895;28;20048;-64
2021/01/04 08:27:54;;;;;;;27.80;10.02;;;6.70;99.90;;;;;;5020072;28;20034;-65
2021/01/04 08:30:52;;;;;;;25.25;9.10;;;6.80;99.90;;;;;;5028859;28;20060;-65
2021/01/04 08:33:26;;;;;;;26.20;8.60;;;6.70;99.90;;;;;;5048845;28;20500;-64
2021/01/04 08:35:53;;;;;;;34.00;11.00;;;6.70;99.90;;;;;;5046973;28;20057;-65
2021/01/04 08:38:20;;;;;;;27.17;9.77;;;6.60;99.90;;;;;;5048298;28;20526;-65
2021/01/04 08:41:00;;;;;;;33.35;10.27;;;6.50;99.90;;;;;;5051971;28;20049;-65
2021/01/04 08:43:37;;;;;;;26.42;9.77;;;6.50;99.90;;;;;;5050285;28;20611;-65
2021/01/04 08:46:21;;;;;;;25.40;8.45;;;6.50;99.90;;;;;;5051341;28;20033;-64
2021/01/04 08:48:53;;;;;;;27.63;9.95;;;6.60;99.90;;;;;;5038102;28;20958;-64
2021/01/04 08:51:25;;;;;;;26.20;9.77;;;6.60;99.90;;;;;;5034351;28;20048;-66
2021/01/04 08:54:03;;;;;;;28.17;9.95;;;6.70;99.90;;;;;;5048179;28;20056;-66
2021/01/04 08:56:38;;;;;;;29.42;10.18;;;6.70;99.90;;;;;;5050276;28;20066;-65
2021/01/04 08:59:14;;;;;;;30.83;10.25;;;6.70;99.90;;;;;;5054681;28;20053;-66
2021/01/04 09:01:53;;;;;;;27.50;10.20;;;6.80;99.90;;;;;;5021440;28;20047;-65
2021/01/04 09:04:37;;;;;;;30.45;9.85;;;6.90;99.90;;;;;;5017267;28;20056;-65
2021/01/04 09:07:22;;;;;;;27.58;9.50;;;6.90;99.90;;;;;;5030671;28;20045;-65
2021/01/04 09:09:50;;;;;;;27.50;9.73;;;6.90;99.90;;;;;;5014409;28;20041;-65
2021/01/04 09:12:24;;;;;;;28.65;9.82;;;6.80;99.90;;;;;;5039468;28;20041;-65
2021/01/04 09:14:55;;;;;;;30.77;11.45;;;6.70;99.90;;;;;;5020949;28;20052;-64
2021/01/04 09:17:59;;;;;;;30.63;11.52;;;6.70;99.90;;;;;;5024417;28;20052;-65
2021/01/04 09:20:35;;;;;;;28.33;10.15;;;6.70;99.90;;;;;;5020475;28;20053;-65
2021/01/04 09:23:18;;;;;;;27.20;11.10;;;6.70;99.90;;;;;;5003286;28;20157;-64
2021/01/04 09:26:00;;;;;;;30.77;9.70;;;6.70;99.90;;;;;;5027477;28;20044;-64
2021/01/04 09:28:37;;;;;;;30.83;8.93;;;6.70;99.90;;;;;;5034315;28;20869;-64
2021/01/04 09:31:04;;;;;;;27.17;9.48;;;6.70;99.90;;;;;;5028096;28;20646;-64
2021/01/04 09:33:31;;;;;;;30.52;11.25;;;6.80;99.90;;;;;;5025105;28;20552;-64
2021/01/04 09:36:03;;;;;;;29.27;10.57;;;6.80;99.90;;;;;;5026279;28;20045;-64
2021/01/04 09:38:48;;;;;;;25.63;10.73;;;6.80;99.90;;;;;;5018365;28;20061;-64
2021/01/04 09:41:15;;;;;;;26.17;10.75;;;6.90;99.90;;;;;;5020861;28;20124;-65
2021/01/04 09:43:42;;;;;;;35.72;14.75;;;7.00;99.90;;;;;;5006049;28;20049;-65
2021/01/04 09:46:17;;;;;;;26.58;10.95;;;7.00;99.90;;;;;;5025786;28;20095;-65
2021/01/04 09:48:54;;;;;;;30.70;10.32;;;7.10;99.90;;;;;;5027408;28;20037;-65
2021/01/04 09:51:32;;;;;;;31.40;11.70;;;7.20;99.90;;;;;;5023917;28;20052;-64
2021/01/04 09:54:02;;;;;;;30.63;10.55;;;7.20;99.90;;;;;;5026060;28;20033;-64
2021/01/04 09:56:36;;;;;;;33.08;11.23;;;7.20;99.90;;;;;;5027277;28;20116;-64
2021/01/04 09:59:08;;;;;;;27.63;10.45;;;7.30;99.90;;;;;;5029057;28;20380;-64
2021/01/04 10:01:43;;;;;;;;;;;7.30;99.90;;;;;;5020500;28;20123;-65
2021/01/04 10:04:10;;;;;;;32.22;11.43;;;7.40;99.90;;;;;;5018602;28;20303;-65
2021/01/04 10:06:39;;;;;;;35.30;14.45;;;7.40;99.90;;;;;;5021901;28;20683;-64
2021/01/04 10:09:14;;;;;;;29.13;11.45;;;7.50;99.90;;;;;;5023358;28;20598;-65
2021/01/04 10:11:43;;;;;;;28.77;11.43;;;7.60;99.90;;;;;;5024892;28;20423;-65
2021/01/04 10:14:13;;;;;;;31.05;11.55;;;7.60;99.90;;;;;;5027598;28;20041;-64
2021/01/04 10:16:43;;;;;;;29.15;10.55;;;7.50;99.90;;;;;;5036030;28;20440;-64
2021/01/04 10:19:18;;;;;;;32.10;9.77;;;7.40;99.90;;;;;;5031007;28;20059;-64
2021/01/04 10:22:03;;;;;;;31.88;12.02;;;7.50;99.90;;;;;;5018233;28;20061;-65
2021/01/04 10:24:39;;;;;;;33.03;12.48;;;7.50;99.90;;;;;;5016252;28;20049;-64
2021/01/04 10:27:06;;;;;;;29.40;10.63;;;7.50;99.90;;;;;;5020601;28;20045;-65
2021/01/04 10:29:52;;;;;;;24.77;10.13;;;7.50;99.90;;;;;;5021769;28;20049;-66
2021/01/04 10:32:30;;;;;;;27.02;10.75;;;7.50;99.90;;;;;;5027205;28;20053;-66
2021/01/04 10:34:57;;;;;;;27.88;11.40;;;7.50;99.90;;;;;;5022277;28;20715;-66
2021/01/04 10:37:41;;;;;;;27.90;9.98;;;7.40;99.90;;;;;;5006866;28;20046;-66
2021/01/04 10:40:13;;;;;;;27.23;9.50;;;7.50;99.90;;;;;;5025437;28;20678;-66
2021/01/04 10:42:42;;;;;;;26.05;9.45;;;7.50;99.90;;;;;;5023981;28;20060;-67
2021/01/04 10:45:35;;;;;;;29.42;11.02;;;7.60;99.90;;;;;;5022774;28;20056;-67
2021/01/04 10:48:16;;;;;;;26.30;10.00;;;7.60;99.90;;;;;;5021439;28;20040;-67
2021/01/04 10:50:57;;;;;;;29.13;11.10;;;7.60;99.90;;;;;;5019712;28;20053;-67
2021/01/04 10:53:37;;;;;;;40.33;15.50;;;7.60;99.90;;;;;;5016934;28;20143;-67
2021/01/04 10:56:08;;;;;;;36.90;13.63;;;7.70;99.90;;;;;;5017304;28;20045;-64
2021/01/04 10:59:08;;;;;;;32.60;12.70;;;7.80;99.90;;;;;;5019158;28;20060;-64
2021/01/04 11:01:40;;;;;;;33.63;11.38;;;8.00;99.90;;;;;;5022782;28;20042;-65
2021/01/04 11:04:13;;;;;;;28.42;11.90;;;8.00;99.90;;;;;;5023781;28;20049;-63
2021/01/04 11:06:42;;;;;;;30.40;11.88;;;8.00;99.90;;;;;;5021791;28;20041;-65
2021/01/04 11:09:18;;;;;;;30.10;12.80;;;8.10;99.90;;;;;;5027257;28;20053;-66
2021/01/04 11:12:02;;;;;;;28.17;9.80;;;8.10;99.90;;;;;;5025277;28;20080;-66
2021/01/04 11:14:31;;;;;;;28.25;10.07;;;8.00;99.90;;;;;;5028897;28;20080;-65
2021/01/04 11:17:18;;;;;;;29.35;10.65;;;8.10;99.90;;;;;;5019399;28;20684;-65
2021/01/04 11:19:45;;;;;;;23.25;9.32;;;8.10;99.90;;;;;;5038467;28;20053;-65
2021/01/04 11:22:22;;;;;;;23.35;9.75;;;8.10;99.90;;;;;;5024406;28;20523;-66
2021/01/04 11:24:49;;;;;;;26.15;9.60;;;8.10;99.90;;;;;;5022102;28;20044;-66
2021/01/04 11:27:17;;;;;;;33.47;11.20;;;8.10;99.90;;;;;;5018979;28;20048;-66
2021/01/04 11:29:44;;;;;;;30.20;10.18;;;8.20;99.90;;;;;;5028672;28;20037;-65
2021/01/04 11:32:11;;;;;;;24.83;10.15;;;8.30;99.90;;;;;;5026659;28;20412;-65
2021/01/04 11:34:48;;;;;;;21.33;8.68;;;8.30;99.90;;;;;;5027486;28;20117;-64
2021/01/04 11:37:16;;;;;;;29.75;10.88;;;8.30;99.90;;;;;;5021478;28;20049;-64
2021/01/04 11:39:42;;;;;;;38.90;14.82;;;8.30;99.90;;;;;;5024390;28;20481;-66
2021/01/04 11:42:09;;;;;;;34.38;12.10;;;8.30;99.90;;;;;;5029858;28;20037;-67
2021/01/04 11:44:36;;;;;;;26.20;10.27;;;8.40;99.90;;;;;;5027453;28;20045;-66
2021/01/04 11:47:04;;;;;;;25.17;9.23;;;8.40;99.90;;;;;;5024507;28;20046;-67
2021/01/04 11:49:32;;;;;;;22.17;8.63;;;8.40;99.90;;;;;;5044102;28;20046;-66
2021/01/04 11:51:58;;;;;;;27.05;10.25;;;8.30;99.90;;;;;;5028552;28;20037;-66
2021/01/04 11:54:25;;;;;;;68.32;19.10;;;8.20;99.90;;;;;;5017148;28;20042;-66
2021/01/04 11:56:52;;;;;;;26.77;10.45;;;8.20;99.90;;;;;;5022032;28;20503;-65
2021/01/04 11:59:19;;;;;;;26.13;10.38;;;8.10;99.90;;;;;;5031780;28;20099;-65
2021/01/04 12:01:45;;;;;;;25.25;9.85;;;8.10;99.90;;;;;;5032209;28;20508;-64
2021/01/04 12:04:12;;;;;;;28.55;10.95;;;8.10;99.90;;;;;;5035594;28;20107;-65
2021/01/04 12:06:38;;;;;;;27.90;11.30;;;8.10;99.90;;;;;;5027529;28;20396;-66
2021/01/04 12:09:06;;;;;;;23.60;10.05;;;8.10;99.90;;;;;;5027211;28;20037;-66
2021/01/04 12:11:37;;;;;;;24.65;9.90;;;8.20;99.90;;;;;;5018733;28;20084;-66
2021/01/04 12:14:06;;;;;;;28.80;10.57;;;8.30;99.90;;;;;;5033456;28;20065;-66
2021/01/04 12:16:35;;;;;;;26.85;9.52;;;8.30;99.90;;;;;;5032564;28;20041;-66
2021/01/04 12:19:02;;;;;;;27.67;9.68;;;8.30;99.90;;;;;;5028846;28;20071;-66
2021/01/04 12:21:30;;;;;;;27.35;10.00;;;8.20;99.90;;;;;;5028455;28;20049;-66
2021/01/04 12:23:57;;;;;;;23.90;8.60;;;8.20;99.90;;;;;;5039117;28;20111;-65
2021/01/04 12:26:23;;;;;;;19.88;9.70;;;8.20;99.90;;;;;;5031917;28;20053;-65
2021/01/04 12:28:50;;;;;;;29.10;10.25;;;8.20;99.90;;;;;;5023220;28;20100;-67
2021/01/04 12:31:20;;;;;;;25.77;8.95;;;8.20;99.90;;;;;;5013977;28;20053;-66
2021/01/04 12:33:49;;;;;;;23.23;8.73;;;8.20;99.90;;;;;;5030536;28;20489;-66
2021/01/04 12:36:22;;;;;;;25.90;9.80;;;8.20;99.90;;;;;;5027427;28;20050;-66
2021/01/04 12:38:49;;;;;;;25.00;10.75;;;8.20;99.90;;;;;;5042541;28;20050;-67
2021/01/04 12:41:17;;;;;;;23.83;9.77;;;8.20;99.90;;;;;;5029277;28;20048;-67
2021/01/04 12:43:45;;;;;;;21.25;9.05;;;8.30;99.90;;;;;;5020810;28;20073;-66
2021/01/04 12:46:12;;;;;;;21.92;8.85;;;8.30;99.90;;;;;;5020101;28;20057;-66
2021/01/04 12:48:39;;;;;;;23.05;9.25;;;8.30;99.90;;;;;;5033844;28;20662;-66
2021/01/04 12:51:09;;;;;;;26.27;10.63;;;8.40;99.90;;;;;;5028815;28;20121;-65
2021/01/04 12:53:36;;;;;;;26.52;9.50;;;8.50;99.90;;;;;;5029512;28;20052;-65
2021/01/04 12:56:05;;;;;;;20.33;9.02;;;8.50;99.90;;;;;;5028870;28;20041;-65
2021/01/04 12:58:31;;;;;;;27.67;11.20;;;8.60;99.90;;;;;;5030057;28;20037;-65
2021/01/04 13:00:58;;;;;;;20.95;9.82;;;8.60;99.90;;;;;;5026261;28;20041;-64
2021/01/04 13:03:45;;;;;;;25.30;10.35;;;8.60;99.90;;;;;;5031613;28;20111;-66
2021/01/04 13:06:22;;;;;;;27.77;10.30;;;8.60;99.90;;;;;;5032982;28;20492;-63
2021/01/04 13:08:51;;;;;;;25.90;10.70;;;8.50;99.90;;;;;;5025370;28;20103;-65
2021/01/04 13:11:18;;;;;;;29.88;11.48;;;8.60;99.90;;;;;;4992491;28;20049;-63
2021/01/04 13:13:48;;;;;;;39.20;14.60;;;8.60;99.90;;;;;;5024029;28;20870;-64
2021/01/04 13:16:15;;;;;;;24.52;9.80;;;8.60;99.90;;;;;;5023897;28;20053;-65
2021/01/04 13:18:41;;;;;;;32.75;11.75;;;8.60;99.90;;;;;;5021837;28;20417;-64
2021/01/04 13:21:14;;;;;;;36.42;14.13;;;8.60;99.90;;;;;;5033354;28;20044;-64
2021/01/04 13:23:41;;;;;;;28.58;10.90;;;8.60;99.90;;;;;;5023169;28;20057;-64
2021/01/04 13:26:07;;;;;;;26.13;10.82;;;8.50;99.90;;;;;;5025786;28;20400;-65
2021/01/04 13:28:34;;;;;;;30.95;11.88;;;8.40;99.90;;;;;;5024623;28;20810;-64
2021/01/04 13:31:00;;;;;;;26.38;10.25;;;8.30;99.90;;;;;;5027111;28;20107;-63
2021/01/04 13:33:27;;;;;;;26.73;10.50;;;8.30;99.90;;;;;;5024174;28;20049;-63
2021/01/04 13:35:53;;;;;;;21.83;8.98;;;8.20;99.90;;;;;;5011070;28;20045;-63
2021/01/04 13:38:20;;;;;;;21.08;9.70;;;8.20;99.90;;;;;;5026549;28;20050;-64